Time;durP1;ratioP1;P1;durP2;ratioP2;P2;SDS_P1;SDS_P2;PMS_P1;PMS_P2;Temp;Humidity;BMP_temperature;BMP_pressure;BME280_temperature;BME280_humidity;BME280_pressure;Samples;Min_cycle;Max_cycle;Signal;HPM_P1;HPM_P2
2021/09/27 00:04:16;;;;;;;20.02;16.35;;;;;;;15.04;100.00;101328.25;10649052;27;20050;-81
2021/09/27 00:09:18;;;;;;;18.50;15.88;;;;;;;15.03;100.00;101333.41;10649476;27;20126;-81
2021/09/27 00:14:19;;;;;;;21.38;16.20;;;;;;;15.02;100.00;101323.88;10666151;27;20081;-80
2021/09/27 00:19:23;;;;;;;19.48;15.38;;;;;;;15.07;100.00;101315.19;10648619;27;20435;-82
2021/09/27 00:24:25;;;;;;;20.73;17.55;;;;;;;15.17;100.00;101312.63;10648295;27;20054;-81
2021/09/27 00:29:26;;;;;;;20.15;15.77;;;;;;;15.05;100.00;101309.13;10647912;27;20042;-80
2021/09/27 00:34:28;;;;;;;19.00;15.63;;;;;;;15.17;100.00;101310.03;10666082;27;20065;-82
2021/09/27 00:39:30;;;;;;;19.42;15.75;;;;;;;15.13;100.00;101303.06;10647853;27;20046;-81
2021/09/27 00:44:32;;;;;;;17.55;15.00;;;;;;;15.05;100.00;101301.31;10648202;27;20099;-80
2021/09/27 00:49:33;;;;;;;20.23;14.90;;;;;;;14.94;100.00;101315.16;10648031;27;20055;-80
2021/09/27 00:54:36;;;;;;;18.38;15.65;;;;;;;14.99;100.00;101303.91;10648124;27;20050;-81
2021/09/27 00:59:47;;;;;;;19.00;14.05;;;;;;;14.82;100.00;101296.00;10648787;27;20046;-82
2021/09/27 01:04:49;;;;;;;18.60;15.07;;;;;;;14.71;100.00;101289.00;10647357;27;20390;-82
2021/09/27 01:10:26;;;;;;;16.35;13.70;;;;;;;14.60;100.00;101293.28;10652876;27;20043;-82
2021/09/27 01:15:30;;;;;;;18.50;13.82;;;;;;;14.64;100.00;101295.91;10674216;27;20046;-81
2021/09/27 01:20:42;;;;;;;16.83;13.52;;;;;;;14.60;100.00;101301.09;10655476;27;20047;-82
2021/09/27 01:26:23;;;;;;;16.27;13.52;;;;;;;14.52;100.00;101290.63;10672953;27;20053;-82
2021/09/27 01:31:40;;;;;;;16.88;13.80;;;;;;;14.56;100.00;101284.56;10617409;27;20038;-82
2021/09/27 01:36:46;;;;;;;18.77;14.60;;;;;;;14.50;100.00;101277.59;10672720;27;20107;-82
2021/09/27 01:41:54;;;;;;;16.38;13.98;;;;;;;14.37;100.00;101273.16;10655128;27;20062;-82
2021/09/27 01:47:00;;;;;;;20.95;14.77;;;;;;;14.32;100.00;101272.25;10653910;27;20489;-82
2021/09/27 01:52:16;;;;;;;17.23;13.67;;;;;;;14.33;100.00;101274.00;10654484;27;20402;-82
2021/09/27 01:57:30;;;;;;;;;;;;;;;14.40;100.00;101273.16;10672938;27;20070;-82
2021/09/27 02:02:42;;;;;;;19.17;13.20;;;;;;;14.38;100.00;101287.91;10654090;27;19926;-82
2021/09/27 02:08:10;;;;;;;19.30;15.43;;;;;;;14.33;100.00;101294.81;10653347;27;20050;-82
2021/09/27 02:13:21;;;;;;;17.80;14.25;;;;;;;14.29;100.00;101296.53;10652909;27;20045;-81
2021/09/27 02:18:31;;;;;;;18.52;15.05;;;;;;;14.25;100.00;101279.16;10654156;27;20060;-82
2021/09/27 02:23:49;;;;;;;20.98;14.90;;;;;;;14.19;100.00;101266.09;10655372;27;20043;-82
2021/09/27 02:28:51;;;;;;;20.58;14.75;;;;;;;14.22;100.00;101263.50;10627810;27;20506;-82
2021/09/27 02:34:07;;;;;;;21.17;16.50;;;;;;;14.24;100.00;101263.53;10648288;27;20059;-81
2021/09/27 02:39:25;;;;;;;18.23;14.60;;;;;;;14.25;100.00;101258.34;10619038;27;20046;-82
2021/09/27 02:44:27;;;;;;;28.40;17.02;;;;;;;14.25;100.00;101254.88;10627795;27;20096;-81
2021/09/27 02:49:33;;;;;;;22.10;16.95;;;;;;;14.25;100.00;101260.06;10636618;27;20043;-82
2021/09/27 02:54:43;;;;;;;;;;;;;;;14.24;100.00;101255.72;10596195;27;20058;-82
2021/09/27 03:00:26;;;;;;;18.55;15.57;;;;;;;14.24;100.00;101256.59;10641425;27;20321;-81
2021/09/27 03:06:02;;;;;;;19.67;15.63;;;;;;;14.15;100.00;101251.31;10628469;27;20379;-81
2021/09/27 03:11:48;;;;;;;21.93;15.00;;;;;;;14.06;100.00;101244.31;10630001;27;20047;-82
2021/09/27 03:17:02;;;;;;;18.02;14.13;;;;;;;14.01;100.00;101243.44;10665613;27;20129;-82
2021/09/27 03:22:16;;;;;;;22.75;16.00;;;;;;;14.02;100.00;101236.50;10608641;27;20051;-81
2021/09/27 03:27:30;;;;;;;22.05;15.65;;;;;;;13.99;100.00;101228.66;10640104;27;20058;-81
2021/09/27 03:33:00;;;;;;;23.67;17.42;;;;;;;13.92;100.00;101226.88;10613736;27;20497;-81
2021/09/27 03:38:15;;;;;;;24.10;16.13;;;;;;;13.87;100.00;101220.78;10655092;27;20073;-81
2021/09/27 03:43:23;;;;;;;28.05;18.48;;;;;;;13.90;100.00;101226.00;10594666;27;20046;-81
2021/09/27 03:48:50;;;;;;;23.67;17.75;;;;;;;13.86;100.00;101219.91;10634950;27;20058;-82
2021/09/27 03:53:57;;;;;;;23.92;16.42;;;;;;;13.84;100.00;101231.13;10641820;27;20473;-82
2021/09/27 03:59:26;;;;;;;24.10;18.20;;;;;;;13.89;100.00;101225.09;10606739;27;20047;-80
2021/09/27 04:04:55;;;;;;;22.90;16.48;;;;;;;13.87;100.00;101224.25;10608911;27;20479;-81
2021/09/27 04:10:03;;;;;;;25.60;17.02;;;;;;;13.98;100.00;101226.91;10606723;27;20055;-82
2021/09/27 04:15:39;;;;;;;24.38;17.40;;;;;;;14.05;100.00;101226.09;10638061;27;20050;-81
2021/09/27 04:21:04;;;;;;;29.08;18.30;;;;;;;14.13;100.00;101224.44;10596721;27;20082;-82
2021/09/27 04:26:20;;;;;;;25.55;17.17;;;;;;;14.12;100.00;101227.00;10633001;27;20165;-81
2021/09/27 04:31:33;;;;;;;23.55;17.40;;;;;;;14.05;100.00;101224.34;10577508;27;20101;-82
2021/09/27 04:36:38;;;;;;;23.00;16.70;;;;;;;14.08;100.00;101223.53;10610185;27;20124;-82
2021/09/27 04:42:03;;;;;;;20.10;16.80;;;;;;;14.15;100.00;101221.84;10606236;27;20043;-81
2021/09/27 04:47:19;;;;;;;19.42;15.32;;;;;;;14.11;100.00;101222.66;10612818;27;20395;-82
2021/09/27 04:52:42;;;;;;;24.40;16.17;;;;;;;14.15;100.00;101221.84;10648466;27;20046;-83
2021/09/27 04:58:07;;;;;;;21.58;16.40;;;;;;;14.11;100.00;101205.31;10631562;27;20043;-84
2021/09/27 05:03:56;;;;;;;28.42;17.90;;;;;;;14.18;100.00;101208.81;10579080;27;20054;-83
2021/09/27 05:09:13;;;;;;;21.25;16.50;;;;;;;14.23;100.00;101222.72;10612167;27;20047;-84
2021/09/27 05:14:40;;;;;;;28.27;20.23;;;;;;;14.24;100.00;101208.88;10611826;27;20133;-84
2021/09/27 05:20:07;;;;;;;27.92;19.25;;;;;;;14.24;100.00;101211.50;10606086;27;20112;-84
2021/09/27 05:25:08;;;;;;;30.60;18.98;;;;;;;14.26;100.00;101209.75;10611556;27;20405;-84
2021/09/27 05:30:29;;;;;;;24.17;17.52;;;;;;;14.25;100.00;101200.22;10618119;27;20050;-84
2021/09/27 05:35:53;;;;;;;26.98;19.40;;;;;;;14.28;100.00;101208.88;10609419;27;20046;-84
2021/09/27 05:41:19;;;;;;;26.90;18.02;;;;;;;14.28;100.00;101198.47;10610536;27;20074;-84
2021/09/27 05:46:24;;;;;;;27.90;19.40;;;;;;;14.29;100.00;101202.84;10610567;27;20061;-84
2021/09/27 05:51:39;;;;;;;25.90;19.48;;;;;;;14.29;100.00;101195.03;10611630;27;20059;-84
2021/09/27 05:57:15;;;;;;;27.20;18.97;;;;;;;14.36;100.00;101190.72;10610744;27;20054;-83
2021/09/27 06:02:23;;;;;;;30.00;21.07;;;;;;;14.39;100.00;101188.13;10600383;27;20070;-85
2021/09/27 06:07:46;;;;;;;26.42;19.83;;;;;;;14.49;100.00;101191.69;10608966;27;20059;-84
2021/09/27 06:13:09;;;;;;;27.55;19.50;;;;;;;14.51;100.00;101190.81;10605847;27;20047;-84
2021/09/27 06:18:36;;;;;;;31.20;21.80;;;;;;;14.53;100.00;101173.47;10605530;27;20047;-84
2021/09/27 06:23:56;;;;;;;31.17;21.42;;;;;;;14.59;100.00;101175.22;10599553;27;20051;-84
2021/09/27 06:29:12;;;;;;;25.23;19.50;;;;;;;14.64;100.00;101175.25;10627304;27;20546;-83
2021/09/27 06:34:43;;;;;;;;;;;;;;;14.73;100.00;101183.09;10625646;27;20520;-84
2021/09/27 06:39:45;;;;;;;28.67;20.63;;;;;;;14.69;100.00;101179.63;10651191;27;19988;-84
2021/09/27 06:44:47;;;;;;;30.92;20.90;;;;;;;14.80;100.00;101185.69;10665042;27;20062;-84
2021/09/27 06:49:48;;;;;;;30.80;21.85;;;;;;;14.93;100.00;101184.03;10664778;27;20078;-84
2021/09/27 06:54:50;;;;;;;33.63;23.02;;;;;;;15.07;100.00;101186.63;10650691;27;20050;-83
2021/09/27 06:59:52;;;;;;;33.55;22.40;;;;;;;15.13;100.00;101180.56;10654616;27;20058;-84
2021/09/27 07:04:53;;;;;;;31.10;23.00;;;;;;;15.24;100.00;101178.84;10649146;27;20043;-82
2021/09/27 07:09:55;;;;;;;26.05;20.23;;;;;;;15.42;100.00;101163.22;10667068;27;20042;-84
2021/09/27 07:14:56;;;;;;;24.17;18.73;;;;;;;15.61;100.00;101162.34;10650087;27;20047;-84
2021/09/27 07:19:58;;;;;;;27.42;20.58;;;;;;;15.70;100.00;101164.09;10649843;27;20047;-84
2021/09/27 07:25:00;;;;;;;23.10;18.98;;;;;;;15.69;100.00;101149.31;10636472;27;20050;-85
2021/09/27 07:30:02;;;;;;;25.00;18.85;;;;;;;15.91;100.00;101152.78;10647681;27;20042;-84
2021/09/27 07:35:05;;;;;;;28.13;20.50;;;;;;;15.89;100.00;101152.78;10642348;27;20051;-84
2021/09/27 07:40:12;;;;;;;27.02;21.35;;;;;;;15.90;100.00;101146.69;10606007;27;20047;-84
2021/09/27 07:45:17;;;;;;;29.60;20.50;;;;;;;15.99;100.00;101148.38;10606936;27;20058;-83
2021/09/27 07:50:21;;;;;;;25.37;20.87;;;;;;;16.00;100.00;101151.91;10604173;27;20043;-84
2021/09/27 07:55:22;;;;;;;25.98;20.40;;;;;;;16.02;100.00;101156.22;10605502;27;20123;-84
2021/09/27 08:00:24;;;;;;;26.05;19.35;;;;;;;16.05;100.00;101140.56;10604790;27;20510;-84
2021/09/27 08:05:30;;;;;;;25.60;19.98;;;;;;;16.17;100.00;101142.28;10619878;27;20507;-83
2021/09/27 08:10:34;;;;;;;29.07;18.90;;;;;;;16.26;100.00;101130.91;10604616;27;20062;-83
2021/09/27 08:15:41;;;;;;;21.95;17.67;;;;;;;16.36;100.00;101112.59;10604136;27;20047;-83
2021/09/27 08:20:49;;;;;;;23.23;18.65;;;;;;;16.62;100.00;101111.56;10604705;27;20082;-84
2021/09/27 08:25:53;;;;;;;24.00;18.95;;;;;;;16.77;100.00;101124.59;10604502;27;20547;-84
2021/09/27 08:31:03;;;;;;;22.73;18.38;;;;;;;16.95;100.00;101106.16;10604397;28;20058;-86
2021/09/27 08:36:08;;;;;;;22.00;17.90;;;;;;;17.03;100.00;101119.19;10619231;27;20062;-86
2021/09/27 08:41:30;;;;;;;24.63;19.10;;;;;;;17.04;100.00;101115.69;10603634;28;20074;-84
2021/09/27 08:46:42;;;;;;;23.08;17.77;;;;;;;17.28;100.00;101111.16;10600321;28;20047;-87
2021/09/27 08:51:45;;;;;;;22.40;16.45;;;;;;;17.53;100.00;101103.94;10603659;28;20047;-86
2021/09/27 08:57:15;;;;;;;22.98;14.63;;;;;;;17.52;99.14;101107.44;10603404;28;20138;-87
2021/09/27 09:02:26;;;;;;;18.42;14.57;;;;;;;17.52;99.47;101102.19;10618427;28;20043;-87
2021/09/27 09:07:28;;;;;;;17.60;14.73;;;;;;;17.65;99.34;101112.56;10621722;28;20611;-87
2021/09/27 09:12:35;;;;;;;19.02;14.80;;;;;;;17.60;98.90;101101.25;10603093;28;20054;-87
2021/09/27 09:17:46;;;;;;;18.25;13.02;;;;;;;17.63;98.80;101093.34;10603803;28;20058;-85
2021/09/27 09:22:49;;;;;;;16.00;12.13;;;;;;;17.70;98.41;101081.97;10603665;28;20122;-85
2021/09/27 09:27:52;;;;;;;17.85;12.10;;;;;;;17.64;98.55;101102.97;10604843;27;20143;-84
2021/09/27 09:32:53;;;;;;;17.77;12.77;;;;;;;17.67;96.88;101087.22;10611351;27;20054;-86
2021/09/27 09:38:08;;;;;;;13.65;11.13;;;;;;;17.87;96.98;101097.53;10629639;27;20058;-86
2021/09/27 09:43:13;;;;;;;13.88;10.55;;;;;;;18.13;95.12;101093.72;10611498;27;20051;-86
2021/09/27 09:48:25;;;;;;;15.80;10.70;;;;;;;18.19;94.24;101088.41;10610060;27;20518;-84
2021/09/27 09:53:34;;;;;;;12.85;9.98;;;;;;;18.32;93.37;101086.47;10610645;27;20043;-85
2021/09/27 09:58:46;;;;;;;12.52;9.02;;;;;;;18.61;91.02;101070.38;10610046;27;20051;-86
2021/09/27 10:04:07;;;;;;;17.05;9.35;;;;;;;18.58;90.07;101075.66;10610040;27;20051;-86
2021/09/27 10:09:33;;;;;;;13.50;8.02;;;;;;;18.59;90.08;101082.63;10609140;27;20142;-85
2021/09/27 10:14:44;;;;;;;11.23;7.97;;;;;;;18.49;90.59;101074.00;10608035;27;20135;-87
2021/09/27 10:20:07;;;;;;;8.07;6.75;;;;;;;18.30;91.37;101083.03;10607395;27;20521;-87
2021/09/27 10:25:31;;;;;;;12.15;7.45;;;;;;;18.40;91.73;101075.03;10608451;27;20047;-86
2021/09/27 10:30:41;;;;;;;10.65;6.40;;;;;;;18.40;90.66;101061.94;10607003;27;20047;-86
2021/09/27 10:35:52;;;;;;;8.23;6.45;;;;;;;18.27;90.76;101076.09;10629235;27;20514;-86
2021/09/27 10:40:54;;;;;;;8.90;5.97;;;;;;;18.21;90.52;101068.31;10657032;27;20046;-85
2021/09/27 10:45:59;;;;;;;9.48;5.35;;;;;;;18.26;90.25;101071.72;10643891;27;20493;-86
2021/09/27 10:51:06;;;;;;;9.13;5.68;;;;;;;18.32;90.47;101055.03;10640207;27;20083;-84
2021/09/27 10:56:22;;;;;;;7.57;5.25;;;;;;;18.23;90.48;101049.06;10624964;27;20061;-86
2021/09/27 11:01:52;;;;;;;9.07;5.55;;;;;;;18.41;90.02;101040.06;10624483;27;20054;-85
2021/09/27 11:06:57;;;;;;;5.88;4.90;;;;;;;18.51;89.76;101032.97;10624523;27;20078;-86
2021/09/27 11:12:06;;;;;;;9.30;5.28;;;;;;;18.60;88.60;101030.19;10638468;27;20039;-85
2021/09/27 11:17:25;;;;;;;8.13;4.78;;;;;;;18.57;88.65;101027.63;10626806;27;20047;-85
2021/09/27 11:22:35;;;;;;;8.30;4.82;;;;;;;18.63;89.25;101030.16;10625195;27;20054;-84
2021/09/27 11:27:39;;;;;;;6.88;5.32;;;;;;;18.88;87.38;101037.66;10637957;27;20058;-85
2021/09/27 11:32:50;;;;;;;7.65;4.82;;;;;;;19.32;85.50;101019.38;10626821;27;20050;-84
2021/09/27 11:37:51;;;;;;;10.50;4.75;;;;;;;19.48;84.19;101016.47;10635336;27;20047;-85
2021/09/27 11:43:21;;;;;;;6.03;3.72;;;;;;;19.42;83.60;101021.84;10635626;27;20054;-84
2021/09/27 11:48:55;;;;;;;6.13;4.15;;;;;;;19.22;81.26;101009.94;10635660;27;20062;-83
2021/09/27 11:54:12;;;;;;;7.07;3.65;;;;;;;19.14;80.30;101011.00;10629788;27;20042;-82
2021/09/27 11:59:27;;;;;;;5.22;3.03;;;;;;;19.14;80.94;101013.63;10663159;27;20051;-84
2021/09/27 12:04:53;;;;;;;6.47;3.38;;;;;;;19.06;80.98;101019.00;10630937;27;20053;-84
2021/09/27 12:09:57;;;;;;;;;;;;;;;19.00;81.60;101013.84;10655881;27;20050;-83
2021/09/27 12:15:04;;;;;;;5.47;3.05;;;;;;;19.02;81.69;101009.44;10664874;27;19941;-84
2021/09/27 12:20:14;;;;;;;3.72;3.28;;;;;;;19.03;81.10;100993.69;10647510;27;20051;-84
2021/09/27 12:25:21;;;;;;;6.05;2.90;;;;;;;19.21;81.18;100997.72;10647740;27;20078;-85
2021/09/27 12:30:25;;;;;;;5.88;2.97;;;;;;;19.35;80.52;101001.88;10653128;27;20047;-85
2021/09/27 12:35:41;;;;;;;4.13;3.00;;;;;;;19.46;79.17;101005.16;10663957;27;20058;-85
2021/09/27 12:40:46;;;;;;;2.78;2.53;;;;;;;19.55;78.53;100989.22;10664340;27;20051;-84
2021/09/27 12:45:50;;;;;;;5.32;2.70;;;;;;;19.40;78.25;100997.38;10664264;27;20491;-84
2021/09/27 12:51:01;;;;;;;6.40;2.47;;;;;;;19.49;78.24;100999.81;10664169;27;20051;-84
2021/09/27 12:56:05;;;;;;;4.10;2.38;;;;;;;19.39;77.92;100995.66;10663829;27;20050;-84
2021/09/27 13:01:14;;;;;;;4.63;2.58;;;;;;;19.26;78.81;100998.50;10646419;27;20047;-82
2021/09/27 13:06:26;;;;;;;8.95;2.35;;;;;;;19.23;81.06;100998.59;10662920;27;20134;-82
2021/09/27 13:11:48;;;;;;;3.67;2.10;;;;;;;19.11;80.80;101011.88;10665533;27;20050;-86
2021/09/27 13:17:09;;;;;;;6.80;2.28;;;;;;;19.10;81.15;101017.16;10655358;27;20059;-84
2021/09/27 13:22:38;;;;;;;5.78;2.47;;;;;;;19.16;80.47;101019.69;10671792;27;20058;-83
2021/09/27 13:27:54;;;;;;;2.72;2.10;;;;;;;19.17;80.32;101022.28;10659172;27;20058;-79
2021/09/27 13:32:57;;;;;;;;;;;;;;;19.15;83.59;101024.06;10666514;27;20059;-84
2021/09/27 13:38:12;;;;;;;4.07;2.30;;;;;;;19.15;80.60;101017.97;10611168;27;20010;-83
2021/09/27 13:43:26;;;;;;;7.53;2.40;;;;;;;18.87;84.50;101033.28;10611257;27;20047;-83
2021/09/27 13:48:28;;;;;;;6.45;2.85;;;;;;;18.50;92.97;101024.22;10614547;27;20055;-83
2021/09/27 13:53:36;;;;;;;5.00;2.63;;;;;;;17.94;95.48;101020.63;10628271;27;20043;-82
2021/09/27 13:58:39;;;;;;;2.47;2.28;;;;;;;17.79;96.39;101019.97;10628846;27;20109;-83
2021/09/27 14:03:42;;;;;;;4.80;2.60;;;;;;;17.68;97.43;101020.03;10628133;27;20055;-82
2021/09/27 14:08:43;;;;;;;3.40;2.95;;;;;;;17.64;97.73;101026.19;10608994;27;20106;-82
2021/09/27 14:13:45;;;;;;;5.22;2.53;;;;;;;17.70;98.01;101034.00;10608415;27;20429;-82
2021/09/27 14:18:47;;;;;;;4.35;2.35;;;;;;;17.63;97.86;101069.81;10598721;27;20485;-85
2021/09/27 14:23:51;;;;;;;4.30;2.80;;;;;;;16.76;100.00;101090.63;10608805;27;20051;-86
2021/09/27 14:28:53;;;;;;;3.65;3.10;;;;;;;16.67;100.00;101095.00;10608338;27;20090;-84
2021/09/27 14:33:55;;;;;;;3.58;2.58;;;;;;;16.63;100.00;101095.91;10621766;27;20047;-84
2021/09/27 14:38:57;;;;;;;4.15;2.60;;;;;;;16.60;100.00;101092.44;10658953;27;20567;-86
2021/09/27 14:43:58;;;;;;;2.25;2.05;;;;;;;16.59;100.00;101093.31;10647642;27;20056;-84
2021/09/27 14:49:00;;;;;;;2.53;2.00;;;;;;;16.41;100.00;101084.72;10669620;27;20587;-84
2021/09/27 14:54:01;;;;;;;2.45;1.60;;;;;;;16.46;100.00;101094.28;10669383;27;20049;-84
2021/09/27 14:59:04;;;;;;;4.63;1.98;;;;;;;16.31;100.00;101137.84;10668609;27;20050;-88
2021/09/27 15:04:06;;;;;;;1.85;1.23;;;;;;;15.88;100.00;101152.75;10668113;27;20038;-84
2021/09/27 15:09:07;;;;;;;3.13;0.90;;;;;;;15.40;100.00;101159.75;10649646;27;20068;-82
2021/09/27 15:14:09;;;;;;;1.95;0.80;;;;;;;15.36;100.00;101166.69;10649776;27;20423;-81
2021/09/27 15:19:11;;;;;;;1.63;1.30;;;;;;;15.28;100.00;101183.22;10649886;27;20051;-81
2021/09/27 15:24:14;;;;;;;1.65;1.00;;;;;;;15.31;100.00;101184.06;10665003;27;20061;-82
2021/09/27 15:29:20;;;;;;;1.67;1.15;;;;;;;15.50;100.00;101198.00;10636976;27;20050;-81
2021/09/27 15:34:26;;;;;;;2.47;1.07;;;;;;;15.45;100.00;101204.94;10632620;27;20061;-80
2021/09/27 15:39:29;;;;;;;4.15;1.50;;;;;;;15.48;100.00;101197.09;10624612;27;20077;-81
2021/09/27 15:44:31;;;;;;;2.67;1.50;;;;;;;15.37;100.00;101217.09;10605669;27;20051;-81
2021/09/27 15:49:33;;;;;;;4.32;1.10;;;;;;;15.24;100.00;101211.00;10594034;27;20060;-81
2021/09/27 15:54:36;;;;;;;5.00;1.50;;;;;;;15.31;100.00;101217.09;10603578;27;20051;-80
2021/09/27 15:59:41;;;;;;;5.23;1.57;;;;;;;15.20;100.00;101222.31;10622519;27;20111;-80
2021/09/27 16:04:42;;;;;;;10.90;2.25;;;;;;;15.27;100.00;101233.59;10620799;27;20039;-81
2021/09/27 16:09:44;;;;;;;6.05;2.08;;;;;;;15.20;100.00;101263.09;10604704;27;20059;-80
2021/09/27 16:14:45;;;;;;;6.13;1.42;;;;;;;15.16;100.00;101249.22;10604043;27;20039;-80
2021/09/27 16:19:47;;;;;;;5.05;1.90;;;;;;;15.29;100.00;101247.50;10603844;27;20039;-80
2021/09/27 16:24:49;;;;;;;4.25;1.77;;;;;;;15.24;100.00;101265.72;10605180;27;20051;-81
2021/09/27 16:29:50;;;;;;;4.85;1.60;;;;;;;15.26;100.00;101266.63;10604678;27;20055;-80
2021/09/27 16:34:52;;;;;;;10.23;2.08;;;;;;;15.08;100.00;101256.13;10624332;27;20050;-80
2021/09/27 16:39:53;;;;;;;4.53;1.63;;;;;;;14.97;100.00;101282.16;10636868;27;20049;-81
2021/09/27 16:44:55;;;;;;;6.40;2.03;;;;;;;14.96;100.00;101295.19;10618552;27;20051;-81
2021/09/27 16:49:56;;;;;;;8.52;2.42;;;;;;;14.97;100.00;101328.19;10635867;27;20100;-80
2021/09/27 16:54:59;;;;;;;6.55;2.08;;;;;;;14.84;100.00;101348.09;10623405;27;20089;-80
2021/09/27 17:00:01;;;;;;;6.05;1.20;;;;;;;14.79;100.00;101358.50;10638149;27;20433;-80
2021/09/27 17:05:03;;;;;;;5.55;2.00;;;;;;;14.68;100.00;101375.78;10619605;27;20047;-80
2021/09/27 17:10:08;;;;;;;2.90;1.35;;;;;;;14.46;100.00;101381.66;10636825;27;20055;-81
2021/09/27 17:20:52;;;;;;;5.07;1.50;;;;;;;14.25;97.12;101395.41;10654842;27;20110;-81
2021/09/27 17:26:11;;;;;;;5.18;1.20;;;;;;;14.11;97.46;101412.59;10636269;27;20041;-81
2021/09/27 17:31:19;;;;;;;3.55;1.23;;;;;;;13.92;97.75;101409.84;10631806;27;20055;-82
2021/09/27 17:36:21;;;;;;;7.15;1.80;;;;;;;13.82;94.85;101440.94;10642345;27;20058;-83
2021/09/27 17:41:22;;;;;;;5.57;1.17;;;;;;;13.73;96.26;101453.00;10657968;27;20390;-81
2021/09/27 17:46:24;;;;;;;7.43;1.30;;;;;;;13.53;97.22;101465.72;10660559;27;20043;-81
2021/09/27 17:51:27;;;;;;;5.45;1.27;;;;;;;13.53;96.63;101476.13;10650643;27;20447;-81
2021/09/27 17:56:28;;;;;;;4.30;1.60;;;;;;;13.47;97.06;101475.19;10657408;27;20041;-81
2021/09/27 18:01:30;;;;;;;3.80;1.27;;;;;;;13.39;100.00;101482.88;10634971;27;20061;-81
2021/09/27 18:06:37;;;;;;;8.13;3.83;;;;;;;13.31;100.00;101500.09;10661154;27;20057;-81
2021/09/27 18:11:39;;;;;;;6.38;2.75;;;;;;;12.97;100.00;101501.28;10655137;27;20639;-81
2021/09/27 18:16:43;;;;;;;6.32;2.53;;;;;;;12.92;100.00;101516.78;10640191;27;20417;-81
2021/09/27 18:21:45;;;;;;;4.95;1.98;;;;;;;12.82;100.00;101529.59;10663855;27;20402;-81
2021/09/27 18:26:48;;;;;;;12.45;2.22;;;;;;;12.74;100.00;101535.53;10633529;27;20057;-82
2021/09/27 18:31:51;;;;;;;4.03;1.50;;;;;;;12.49;100.00;101545.47;10644156;27;20042;-82
2021/09/27 18:36:53;;;;;;;3.40;1.42;;;;;;;12.28;100.00;101551.13;10665294;27;20055;-81
2021/09/27 18:41:55;;;;;;;7.10;1.50;;;;;;;12.23;100.00;101569.19;10649212;27;20394;-82
2021/09/27 18:46:59;;;;;;;3.42;1.40;;;;;;;12.16;100.00;101570.78;10649032;27;20113;-81
2021/09/27 18:52:01;;;;;;;6.65;1.58;;;;;;;11.92;100.00;101578.09;10666807;27;20504;-81
2021/09/27 18:57:05;;;;;;;3.40;1.33;;;;;;;12.00;100.00;101586.88;10667448;27;20057;-82
2021/09/27 19:02:10;;;;;;;6.22;1.35;;;;;;;11.91;100.00;101590.16;10636823;27;20046;-83
2021/09/27 19:07:17;;;;;;;2.60;1.38;;;;;;;11.84;100.00;101605.53;10649041;27;20046;-82
2021/09/27 19:12:19;;;;;;;2.65;1.17;;;;;;;11.92;100.00;101612.66;10648847;27;20046;-81
2021/09/27 19:17:21;;;;;;;2.67;1.10;;;;;;;11.90;100.00;101621.22;10648942;27;20054;-82
2021/09/27 19:22:23;;;;;;;3.67;1.60;;;;;;;11.72;100.00;101631.16;10634302;27;20035;-82
2021/09/27 19:27:24;;;;;;;6.63;1.15;;;;;;;11.59;100.00;101641.25;10647425;27;20046;-81
2021/09/27 19:32:27;;;;;;;2.67;0.95;;;;;;;11.47;100.00;101645.28;10650496;27;20047;-81
2021/09/27 19:37:28;;;;;;;3.20;1.05;;;;;;;11.46;100.00;101656.44;10631749;27;20066;-81
2021/09/27 19:42:30;;;;;;;4.15;1.85;;;;;;;11.39;100.00;101664.06;10650856;27;20042;-81
2021/09/27 19:47:31;;;;;;;3.70;1.27;;;;;;;11.45;100.00;101671.13;10641899;27;20510;-82
2021/09/27 19:52:33;;;;;;;2.83;1.20;;;;;;;11.29;100.00;101684.56;10620680;27;20043;-82
2021/09/27 19:57:35;;;;;;;3.70;1.40;;;;;;;11.26;100.00;101689.66;10636660;27;20394;-82
2021/09/27 20:02:37;;;;;;;4.53;1.63;;;;;;;11.16;100.00;101701.47;10621656;27;20091;-82
2021/09/27 20:07:39;;;;;;;3.42;1.65;;;;;;;11.18;100.00;101715.38;10638683;27;20545;-82
2021/09/27 20:12:41;;;;;;;3.67;1.95;;;;;;;11.18;100.00;101715.38;10621960;27;20402;-81
2021/09/27 20:17:45;;;;;;;3.90;1.60;;;;;;;11.14;100.00;101723.88;10629199;27;20050;-82
2021/09/27 20:22:47;;;;;;;3.97;1.77;;;;;;;11.10;100.00;101716.84;10614573;27;20075;-81
2021/09/27 20:27:49;;;;;;;1.88;1.45;;;;;;;10.98;100.00;101727.75;10630256;27;20519;-82
2021/09/27 20:32:52;;;;;;;7.10;1.95;;;;;;;10.92;100.00;101737.94;10605794;27;20078;-82
2021/09/27 20:37:58;;;;;;;3.83;1.67;;;;;;;10.94;100.00;101738.84;10605578;28;20127;-82
2021/09/27 20:43:03;;;;;;;3.15;1.67;;;;;;;10.93;100.00;101744.88;10624526;28;20406;-81
2021/09/27 20:48:05;;;;;;;3.03;1.35;;;;;;;10.76;100.00;101757.34;10606193;28;20047;-82
2021/09/27 20:53:07;;;;;;;5.32;2.20;;;;;;;10.72;100.00;101765.88;10606019;28;20088;-82
2021/09/27 20:58:09;;;;;;;4.95;2.60;;;;;;;10.73;100.00;101780.56;10606587;28;20062;-81
2021/09/27 21:03:11;;;;;;;5.13;3.00;;;;;;;10.86;100.00;101779.19;10623909;28;20079;-81
2021/09/27 21:08:13;;;;;;;6.57;3.55;;;;;;;10.94;100.00;101787.19;10606156;28;20141;-81
2021/09/27 21:13:15;;;;;;;5.20;2.92;;;;;;;10.90;100.00;101801.75;10605912;28;20046;-81
2021/09/27 21:18:21;;;;;;;9.65;3.67;;;;;;;10.84;100.00;101802.47;10605414;28;20043;-82
2021/09/27 21:23:26;;;;;;;6.43;3.53;;;;;;;10.86;100.00;101797.31;10606593;27;20058;-82
2021/09/27 21:28:28;;;;;;;11.18;4.57;;;;;;;11.14;100.00;101809.34;10613156;27;20285;-82
2021/09/27 21:33:30;;;;;;;5.20;3.50;;;;;;;10.99;100.00;101819.25;10585614;27;20058;-81
2021/09/27 21:38:34;;;;;;;6.22;2.75;;;;;;;11.06;100.00;101826.34;10613200;27;20065;-81
2021/09/27 21:43:36;;;;;;;4.00;2.15;;;;;;;11.22;100.00;101825.97;10613514;27;20043;-81
2021/09/27 21:48:39;;;;;;;2.80;1.67;;;;;;;10.64;100.00;101828.56;10613048;27;20071;-81
2021/09/27 21:53:41;;;;;;;1.65;1.40;;;;;;;10.30;100.00;101833.56;10612879;27;20062;-81
2021/09/27 21:58:44;;;;;;;1.88;1.30;;;;;;;10.24;100.00;101851.47;10613022;27;20588;-81
2021/09/27 22:03:46;;;;;;;2.45;1.67;;;;;;;10.18;100.00;101847.78;10629904;27;20129;-81
2021/09/27 22:08:47;;;;;;;4.20;1.65;;;;;;;10.16;100.00;101849.47;10629868;27;20047;-81
2021/09/27 22:13:49;;;;;;;8.43;2.47;;;;;;;10.19;100.00;101850.41;10611106;27;20055;-81
2021/09/27 22:18:50;;;;;;;8.40;2.47;;;;;;;10.22;100.00;101860.88;10610867;27;20525;-79
2021/09/27 22:23:52;;;;;;;3.55;1.90;;;;;;;10.32;100.00;101867.22;10610891;27;20051;-79
2021/09/27 22:28:53;;;;;;;6.85;2.60;;;;;;;10.32;100.00;101864.66;10610560;27;20062;-80
2021/09/27 22:33:55;;;;;;;7.30;2.67;;;;;;;10.48;100.00;101877.25;10609360;27;20517;-81
2021/09/27 22:38:57;;;;;;;6.60;3.10;;;;;;;10.54;100.00;101869.69;10609935;27;20050;-81
2021/09/27 22:43:58;;;;;;;4.63;3.08;;;;;;;10.68;100.00;101867.53;10628801;27;20121;-81
2021/09/27 22:49:00;;;;;;;9.32;3.20;;;;;;;10.64;100.00;101882.91;10627428;27;20057;-80
2021/09/27 22:54:01;;;;;;;6.07;3.03;;;;;;;10.73;100.00;101884.09;10609603;27;20043;-81
2021/09/27 22:59:04;;;;;;;5.85;3.00;;;;;;;10.70;100.00;101896.91;10610020;27;20524;-81
2021/09/27 23:04:06;;;;;;;6.80;3.13;;;;;;;10.76;100.00;101886.75;10627625;27;20053;-81
2021/09/27 23:09:07;;;;;;;8.80;3.45;;;;;;;10.67;100.00;101896.84;10609858;27;20051;-81
2021/09/27 23:14:09;;;;;;;6.50;3.50;;;;;;;10.67;100.00;101895.97;10627009;27;20433;-81
2021/09/27 23:19:10;;;;;;;5.78;3.22;;;;;;;10.61;100.00;101901.81;10609117;27;20130;-80
2021/09/27 23:24:12;;;;;;;5.78;3.80;;;;;;;10.59;100.00;101903.47;10608420;27;20046;-81